createdAt,value
2018-12-11T00:00:52.792Z,94.00
2018-12-11T00:03:21.742Z,93.40
2018-12-11T00:05:50.716Z,93.40
2018-12-11T00:10:48.578Z,93.80
2018-12-11T00:15:46.156Z,93.70
2018-12-11T00:18:15.099Z,94.10
2018-12-11T00:25:41.462Z,94.30
2018-12-11T00:28:10.673Z,94.40
2018-12-11T00:30:39.732Z,94.40
2018-12-11T00:35:37.895Z,94.40
2018-12-11T00:38:07.141Z,94.20
2018-12-11T00:40:36.189Z,94.10
2018-12-11T00:43:05.365Z,94.10
2018-12-11T00:45:34.381Z,94.10
2018-12-11T00:48:03.391Z,94.10
2018-12-11T00:50:32.532Z,94.10
2018-12-11T00:53:01.604Z,94.10
2018-12-11T00:57:59.500Z,93.90
2018-12-11T01:00:28.474Z,93.90
2018-12-11T01:02:57.461Z,93.90
2018-12-11T01:05:26.436Z,94.00
2018-12-11T01:07:55.452Z,93.80
2018-12-11T01:15:21.734Z,94.20
2018-12-11T01:17:50.698Z,94.40
2018-12-11T01:20:19.832Z,94.40
2018-12-11T01:22:48.827Z,94.30
2018-12-11T01:25:17.884Z,94.40
2018-12-11T01:32:44.100Z,94.20
2018-12-11T01:35:13.888Z,94.40
2018-12-11T01:37:42.901Z,94.60
2018-12-11T01:42:40.460Z,94.50
2018-12-11T01:45:09.419Z,94.50
2018-12-11T01:47:38.430Z,94.50
2018-12-11T01:52:36.111Z,94.50
2018-12-11T01:57:33.804Z,94.60
2018-12-11T02:00:02.771Z,94.40
2018-12-11T02:02:32.136Z,94.20
2018-12-11T02:05:01.087Z,94.20
2018-12-11T02:12:27.570Z,94.20
2018-12-11T02:14:56.819Z,94.00
2018-12-11T02:17:25.820Z,93.80
2018-12-11T02:22:23.473Z,94.00
2018-12-11T02:24:52.469Z,94.10
2018-12-11T02:27:21.505Z,94.20
2018-12-11T02:32:19.106Z,93.80
2018-12-11T02:34:48.232Z,93.60
2018-12-11T02:37:17.446Z,93.60
2018-12-11T02:49:41.550Z,93.60
2018-12-11T02:52:10.558Z,93.60
2018-12-11T02:54:39.758Z,93.60
2018-12-11T02:57:08.788Z,93.50
2018-12-11T02:59:37.747Z,93.70
2018-12-11T03:04:36.298Z,93.60
2018-12-11T03:09:33.868Z,93.70
2018-12-11T03:12:02.877Z,93.60
2018-12-11T03:14:31.914Z,93.60
2018-12-11T03:19:29.466Z,93.50
2018-12-11T03:21:58.460Z,93.50
2018-12-11T03:24:27.454Z,93.70
2018-12-11T03:29:25.717Z,93.20
2018-12-11T03:31:54.759Z,93.20
2018-12-11T03:34:23.745Z,92.90
2018-12-11T03:39:21.374Z,93.20
2018-12-11T03:41:50.366Z,93.00
2018-12-11T03:46:47.971Z,93.00
2018-12-11T03:49:16.982Z,93.10
2018-12-11T03:51:46.030Z,92.90
2018-12-11T03:54:15.064Z,92.60
2018-12-11T03:56:44.066Z,92.50
2018-12-11T03:59:13.046Z,92.50
2018-12-11T04:04:11.785Z,92.80
2018-12-11T04:09:09.377Z,92.50
2018-12-11T04:11:38.413Z,92.50
2018-12-11T04:14:07.429Z,92.60
2018-12-11T04:16:36.483Z,92.60
2018-12-11T04:19:05.500Z,92.60
2018-12-11T04:21:34.550Z,92.50
2018-12-11T04:24:04.363Z,92.70
2018-12-11T04:26:33.369Z,92.70
2018-12-11T04:29:02.665Z,92.70
2018-12-11T04:31:31.631Z,92.70
2018-12-11T04:34:00.654Z,93.10
2018-12-11T04:36:29.640Z,92.60
2018-12-11T04:41:27.195Z,92.90
2018-12-11T04:43:56.196Z,92.80
2018-12-11T04:46:25.190Z,92.70
2018-12-11T04:48:54.277Z,92.70
2018-12-11T04:51:23.347Z,92.70
2018-12-11T04:56:20.935Z,92.90
2018-12-11T04:58:49.928Z,93.00
2018-12-11T05:01:18.900Z,92.90
2018-12-11T05:03:48.260Z,93.00
2018-12-11T05:06:17.714Z,93.10
2018-12-11T05:08:47.202Z,93.00
2018-12-11T05:11:16.400Z,92.90
2018-12-11T05:13:45.440Z,93.10
2018-12-11T05:16:14.700Z,92.80
2018-12-11T05:18:43.678Z,93.00
2018-12-11T05:21:12.677Z,93.00
2018-12-11T05:23:41.642Z,93.10
2018-12-11T05:28:39.293Z,92.90
2018-12-11T05:31:08.304Z,93.10
2018-12-11T05:38:34.457Z,92.90
2018-12-11T05:41:04.160Z,93.10
2018-12-11T05:50:59.720Z,92.70
2018-12-11T05:58:26.241Z,93.00
2018-12-11T06:00:55.253Z,92.70
2018-12-11T06:03:24.504Z,92.90
2018-12-11T06:08:22.102Z,92.60
2018-12-11T06:10:51.592Z,92.60
2018-12-11T06:13:20.711Z,92.60
2018-12-11T06:23:16.086Z,92.80
2018-12-11T06:25:45.091Z,93.00
2018-12-11T06:28:14.913Z,93.10
2018-12-11T06:30:44.837Z,93.00
2018-12-11T06:33:13.796Z,93.10
2018-12-11T06:35:42.785Z,92.80
2018-12-11T06:38:11.781Z,92.70
2018-12-11T06:40:40.896Z,92.80
2018-12-11T06:43:09.875Z,92.60
2018-12-11T06:45:38.859Z,92.80
2018-12-11T06:50:36.621Z,92.50
2018-12-11T06:53:05.704Z,92.70
2018-12-11T06:55:35.042Z,92.60
2018-12-11T06:58:04.016Z,93.10
2018-12-11T07:00:33.341Z,93.80
2018-12-11T07:03:02.619Z,94.60
2018-12-11T07:05:31.631Z,95.40
2018-12-11T07:10:29.235Z,96.40
2018-12-11T07:12:58.238Z,96.40
2018-12-11T07:15:27.561Z,96.30
2018-12-11T07:17:56.545Z,96.20
2018-12-11T07:20:25.752Z,96.20
2018-12-11T07:22:54.741Z,96.10
2018-12-11T07:27:52.484Z,95.60
2018-12-11T07:30:21.501Z,95.20
2018-12-11T07:32:50.482Z,94.10
2018-12-11T07:35:19.473Z,93.90
2018-12-11T07:37:48.579Z,94.30
2018-12-11T07:40:17.664Z,94.70
2018-12-11T07:42:46.707Z,95.60
2018-12-11T07:45:15.713Z,96.50
2018-12-11T07:47:45.079Z,96.80
2018-12-11T07:50:14.111Z,97.00
2018-12-11T07:52:43.100Z,96.70
2018-12-11T07:55:12.099Z,96.40
2018-12-11T07:57:41.090Z,96.10
2018-12-11T08:00:11.254Z,96.10
2018-12-11T08:02:40.295Z,95.80
2018-12-11T08:05:10.138Z,95.90
2018-12-11T08:07:39.076Z,95.90
2018-12-11T08:10:08.086Z,95.80
2018-12-11T08:12:37.160Z,95.50
2018-12-11T08:15:07.092Z,95.50
2018-12-11T08:17:36.236Z,95.10
2018-12-11T08:22:33.817Z,92.60
2018-12-11T08:25:02.855Z,91.80
2018-12-11T08:27:32.021Z,90.80
2018-12-11T08:30:00.964Z,91.10
2018-12-11T08:32:30.333Z,91.60
2018-12-11T08:42:25.489Z,93.30
2018-12-11T08:47:23.517Z,93.10
2018-12-11T08:52:21.260Z,93.20
2018-12-11T08:54:50.225Z,92.90
2018-12-11T08:57:19.219Z,93.00
2018-12-11T09:02:16.937Z,92.90
2018-12-11T09:04:45.946Z,92.50
2018-12-11T09:07:14.936Z,92.50
2018-12-11T09:09:44.903Z,92.60
2018-12-11T09:12:13.958Z,92.40
2018-12-11T09:14:43.020Z,92.30
2018-12-11T09:17:13.045Z,92.20
2018-12-11T09:29:37.201Z,92.10
2018-12-11T09:34:35.564Z,92.00
2018-12-11T09:37:04.757Z,91.80
2018-12-11T09:39:33.728Z,91.90
2018-12-11T09:44:33.837Z,91.40
2018-12-11T09:47:03.112Z,91.40
2018-12-11T09:49:32.102Z,91.40
2018-12-11T09:52:01.078Z,91.10
2018-12-11T09:54:30.069Z,91.30
2018-12-11T09:56:59.274Z,91.30
2018-12-11T09:59:28.497Z,91.00
2018-12-11T10:01:57.516Z,91.00
2018-12-11T10:06:55.580Z,90.00
2018-12-11T10:09:24.553Z,89.10
2018-12-11T10:11:53.597Z,88.80
2018-12-11T10:14:22.615Z,88.40
2018-12-11T10:16:52.104Z,87.10
2018-12-11T10:19:21.071Z,85.80
2018-12-11T10:24:20.671Z,88.90
2018-12-11T10:26:50.006Z,89.10
2018-12-11T10:29:18.955Z,89.30
2018-12-11T10:31:48.162Z,90.10
2018-12-11T10:34:17.203Z,90.00
2018-12-11T10:36:49.410Z,90.30
2018-12-11T10:39:18.919Z,90.20
2018-12-11T10:44:19.083Z,89.40
2018-12-11T10:46:48.388Z,89.60
2018-12-11T10:49:17.356Z,89.30
2018-12-11T10:54:14.915Z,87.50
2018-12-11T10:59:12.521Z,89.80
2018-12-11T11:06:43.402Z,90.40
2018-12-11T11:11:42.001Z,90.30
2018-12-11T11:16:39.889Z,90.10
2018-12-11T11:21:38.272Z,90.40
2018-12-11T11:24:07.316Z,90.40
2018-12-11T11:26:36.344Z,91.20
2018-12-11T11:29:05.501Z,92.60
2018-12-11T11:31:34.598Z,94.50
2018-12-11T11:36:32.244Z,96.50
2018-12-11T11:39:01.925Z,96.90
2018-12-11T11:41:30.920Z,97.00
2018-12-11T11:43:59.913Z,96.60
2018-12-11T11:46:28.887Z,96.30
2018-12-11T11:48:57.908Z,95.40
2018-12-11T11:51:27.172Z,93.70
2018-12-11T11:53:56.160Z,92.10
2018-12-11T11:56:25.143Z,92.20
2018-12-11T11:58:54.223Z,91.60
2018-12-11T12:01:23.390Z,91.60
2018-12-11T12:03:52.365Z,90.50
2018-12-11T12:08:49.983Z,88.90
2018-12-11T12:11:18.949Z,89.00
2018-12-11T12:13:47.969Z,90.60
2018-12-11T12:16:16.988Z,90.00
2018-12-11T12:18:46.019Z,89.30
2018-12-11T12:21:14.970Z,90.60
2018-12-11T12:23:43.950Z,91.10
2018-12-11T12:26:12.922Z,91.40
2018-12-11T12:28:42.296Z,91.60
2018-12-11T12:31:11.667Z,92.70
2018-12-11T12:33:40.772Z,93.50
2018-12-11T12:36:09.844Z,94.40
2018-12-11T12:38:38.963Z,95.20
2018-12-11T12:41:07.954Z,95.90
2018-12-11T12:43:37.188Z,96.10
2018-12-11T12:46:06.144Z,96.20
2018-12-11T12:48:35.145Z,96.00
2018-12-11T12:51:04.201Z,95.90
2018-12-11T12:53:33.200Z,95.80
2018-12-11T12:56:02.156Z,95.30
2018-12-11T12:58:31.149Z,95.10
2018-12-11T13:01:00.452Z,95.00
2018-12-11T13:03:29.768Z,94.90
2018-12-11T13:05:58.712Z,94.70
2018-12-11T13:08:27.888Z,94.80
2018-12-11T13:10:57.118Z,94.40
2018-12-11T13:13:26.185Z,93.90
2018-12-11T13:15:55.204Z,93.90
2018-12-11T13:18:24.164Z,93.50
2018-12-11T13:20:53.380Z,93.50
2018-12-11T13:23:22.562Z,93.70
2018-12-11T13:25:51.706Z,93.80
2018-12-11T13:28:20.668Z,94.40
2018-12-11T13:33:18.892Z,94.70
2018-12-11T13:35:48.202Z,94.80
2018-12-11T13:38:17.208Z,94.50
2018-12-11T13:40:46.608Z,94.40
2018-12-11T13:43:15.885Z,94.40
2018-12-11T13:45:44.924Z,94.10
2018-12-11T13:48:14.116Z,94.10
2018-12-11T13:50:43.066Z,93.70
2018-12-11T13:53:12.251Z,93.60
2018-12-11T13:55:41.444Z,93.70
2018-12-11T13:58:10.627Z,93.50
2018-12-11T14:00:39.690Z,93.80
2018-12-11T14:03:08.766Z,93.80
2018-12-11T14:05:37.760Z,93.90
2018-12-11T14:08:06.776Z,93.90
2018-12-11T14:10:36.352Z,93.80
2018-12-11T14:13:05.487Z,94.00
2018-12-11T14:15:34.726Z,94.10
2018-12-11T14:18:03.735Z,94.00
2018-12-11T14:23:01.352Z,94.00
2018-12-11T14:25:30.451Z,94.10
2018-12-11T14:27:59.447Z,93.70
2018-12-11T14:30:28.534Z,94.00
2018-12-11T14:35:26.153Z,94.00
2018-12-11T14:37:55.759Z,93.70
2018-12-11T14:40:24.757Z,93.50
2018-12-11T14:42:53.899Z,93.30
2018-12-11T14:45:22.946Z,93.40
2018-12-11T14:47:51.905Z,93.30
2018-12-11T14:50:20.911Z,93.50
2018-12-11T14:52:49.912Z,93.60
2018-12-11T14:55:18.892Z,93.50
2018-12-11T14:57:48.066Z,93.70
2018-12-11T15:00:17.065Z,93.90
2018-12-11T15:02:46.152Z,93.70
2018-12-11T15:05:15.372Z,93.90
2018-12-11T15:10:13.339Z,93.80
2018-12-11T15:12:42.300Z,93.90
2018-12-11T15:15:11.665Z,93.80
2018-12-11T15:17:40.831Z,93.90
2018-12-11T15:20:10.235Z,93.80
2018-12-11T15:22:39.190Z,93.80
2018-12-11T15:25:08.513Z,93.90
2018-12-11T15:27:37.562Z,93.80
2018-12-11T15:30:07.435Z,94.00
2018-12-11T15:32:36.476Z,93.90
2018-12-11T15:35:05.642Z,94.00
2018-12-11T15:37:34.606Z,94.00
2018-12-11T15:40:04.096Z,94.10
2018-12-11T15:45:02.273Z,95.40
2018-12-11T15:49:59.945Z,95.90
2018-12-11T15:52:29.226Z,95.90
2018-12-11T15:57:26.968Z,95.80
2018-12-11T15:59:56.165Z,95.60
2018-12-11T16:02:25.417Z,95.30
2018-12-11T16:07:23.149Z,95.30
2018-12-11T16:09:52.173Z,95.30
2018-12-11T16:12:21.197Z,95.00
2018-12-11T16:14:50.240Z,95.10
2018-12-11T16:19:48.015Z,95.10
2018-12-11T16:22:17.017Z,94.90
2018-12-11T16:24:47.479Z,94.70
2018-12-11T16:27:16.797Z,94.70
2018-12-11T16:32:14.459Z,94.60
2018-12-11T16:37:12.320Z,94.60
2018-12-11T16:39:41.393Z,94.60
2018-12-11T16:44:39.017Z,94.60
2018-12-11T16:49:36.711Z,94.80
2018-12-11T16:52:05.668Z,94.60
2018-12-11T16:57:03.350Z,94.60
2018-12-11T16:59:32.643Z,94.40
2018-12-11T17:02:01.717Z,94.50
2018-12-11T17:04:30.664Z,94.60
2018-12-11T17:06:59.656Z,94.40
2018-12-11T17:11:58.148Z,94.50
2018-12-11T17:14:27.128Z,94.50
2018-12-11T17:16:56.147Z,94.60
2018-12-11T17:21:53.695Z,94.50
2018-12-11T17:24:22.668Z,94.60
2018-12-11T17:29:24.293Z,94.70
2018-12-11T17:31:51.623Z,94.60
2018-12-11T17:34:20.680Z,94.60
2018-12-11T17:41:47.363Z,94.80
2018-12-11T17:44:16.415Z,94.50
2018-12-11T17:46:45.746Z,94.60
2018-12-11T17:49:14.758Z,94.50
2018-12-11T17:51:43.867Z,94.50
2018-12-11T17:54:49.960Z,94.30
2018-12-11T18:12:20.650Z,94.50
2018-12-11T18:14:49.844Z,94.40
2018-12-11T18:29:42.286Z,94.40
2018-12-11T18:34:49.567Z,94.50
2018-12-11T18:37:18.687Z,94.30
2018-12-11T18:39:52.902Z,94.30
2018-12-11T18:42:22.045Z,94.30
2018-12-11T18:44:51.155Z,94.50
2018-12-11T18:47:20.116Z,94.30
2018-12-11T18:49:49.083Z,94.20
2018-12-11T18:52:18.186Z,94.50
2018-12-11T18:54:47.262Z,94.20
2018-12-11T18:59:45.031Z,94.40
2018-12-11T19:02:21.639Z,94.50
2018-12-11T19:04:50.568Z,94.60
2018-12-11T19:09:49.186Z,94.70
2018-12-11T19:14:47.345Z,94.60
2018-12-11T19:17:16.576Z,94.60
2018-12-11T19:19:45.773Z,94.70
2018-12-11T19:22:14.871Z,94.70
2018-12-11T19:27:16.610Z,94.50
2018-12-11T19:29:45.851Z,94.60
2018-12-11T19:32:15.651Z,94.60
2018-12-11T19:37:13.233Z,94.60
2018-12-11T19:39:42.247Z,94.70
2018-12-11T19:42:11.222Z,94.70
2018-12-11T19:44:49.169Z,94.70
2018-12-11T19:47:18.196Z,94.60
2018-12-11T19:49:47.360Z,94.70
2018-12-11T19:57:13.695Z,94.60
2018-12-11T19:59:42.676Z,94.50
2018-12-11T20:02:11.662Z,94.60
2018-12-11T20:12:11.662Z,94.40
2018-12-11T20:22:06.601Z,94.10
2018-12-11T20:24:35.768Z,94.10
2018-12-11T20:27:04.878Z,94.00
2018-12-11T20:29:37.868Z,94.00
2018-12-11T20:34:35.552Z,93.80
2018-12-11T20:39:33.488Z,93.50
2018-12-11T20:42:02.485Z,93.40
2018-12-11T20:44:31.549Z,93.40
2018-12-11T20:54:27.783Z,93.30
2018-12-11T20:59:25.601Z,93.30
2018-12-11T21:04:24.557Z,93.30
2018-12-11T21:06:53.588Z,93.30
2018-12-11T21:09:22.588Z,93.20
2018-12-11T21:11:51.762Z,93.30
2018-12-11T21:14:20.772Z,93.30
2018-12-11T21:16:49.768Z,93.50
2018-12-11T21:19:18.826Z,93.40
2018-12-11T21:26:45.759Z,93.50
2018-12-11T21:31:43.780Z,93.40
2018-12-11T21:41:40.184Z,93.20
2018-12-11T21:44:09.212Z,93.20
2018-12-11T21:49:06.903Z,92.90
2018-12-11T21:51:36.037Z,93.00
2018-12-11T21:54:05.061Z,93.10
2018-12-11T21:56:34.055Z,92.90
2018-12-11T21:59:03.072Z,92.90
2018-12-11T22:01:32.075Z,92.80
2018-12-11T22:06:29.807Z,92.80
2018-12-11T22:11:27.525Z,92.80
2018-12-11T22:13:56.540Z,92.90
2018-12-11T22:16:25.656Z,92.80
2018-12-11T22:18:54.672Z,92.70
2018-12-11T22:26:22.077Z,92.70
2018-12-11T22:28:51.131Z,92.70
2018-12-11T22:31:20.133Z,92.60
2018-12-11T22:33:49.230Z,92.60
2018-12-11T22:36:18.205Z,92.80
2018-12-11T22:38:47.214Z,92.80
2018-12-11T22:43:45.739Z,92.80
2018-12-11T22:46:15.383Z,92.70
2018-12-11T22:51:13.460Z,92.20
2018-12-11T22:53:42.484Z,92.80
2018-12-11T22:56:11.476Z,92.70
2018-12-11T23:01:09.320Z,93.00
2018-12-11T23:03:38.402Z,93.00
2018-12-11T23:06:07.391Z,93.20
2018-12-11T23:08:36.442Z,93.00
2018-12-11T23:11:06.514Z,93.00
2018-12-11T23:16:04.217Z,93.00
2018-12-11T23:21:02.263Z,92.90
2018-12-11T23:23:31.419Z,92.80
2018-12-11T23:26:00.398Z,92.90
2018-12-11T23:28:29.414Z,92.90
2018-12-11T23:30:58.447Z,92.80
2018-12-11T23:33:27.617Z,92.90
2018-12-11T23:38:25.221Z,93.00
2018-12-11T23:40:54.219Z,92.80
2018-12-11T23:43:23.285Z,92.80
2018-12-11T23:45:52.306Z,92.80
2018-12-11T23:48:21.285Z,92.70
2018-12-11T23:50:50.272Z,92.80
2018-12-11T23:53:19.304Z,92.70
2018-12-11T23:55:48.315Z,92.90
2018-12-11T23:58:17.296Z,92.80
